Time;durP1;ratioP1;P1;durP2;ratioP2;P2;SDS_P1;SDS_P2;PMS_P1;PMS_P2;Temp;Humidity;BMP_temperature;BMP_pressure;BME280_temperature;BME280_humidity;BME280_pressure;Samples;Min_cycle;Max_cycle;Signal;HPM_P1;HPM_P2
2021/12/08 00:00:28;;;;;;;10.63;3.90;;;;;;;3.83;80.82;98794.50;5005017;28;20423;-79
2021/12/08 00:02:54;;;;;;;5.72;2.97;;;;;;;3.87;80.57;98806.38;5011520;28;20418;-79
2021/12/08 00:05:21;;;;;;;6.80;3.92;;;;;;;3.86;80.61;98804.75;5003271;28;20486;-79
2021/12/08 00:07:46;;;;;;;10.30;6.05;;;;;;;3.80;80.92;98813.75;5003082;28;22777;-79
2021/12/08 00:13:03;;;;;;;9.70;5.82;;;;;;;3.81;81.33;98824.25;5001369;28;20906;-79
2021/12/08 00:15:36;;;;;;;13.27;7.10;;;;;;;3.81;81.31;98831.47;5002310;28;20412;-79
2021/12/08 00:18:04;;;;;;;16.35;8.10;;;;;;;3.78;81.45;98824.72;5022189;28;20818;-79
2021/12/08 00:20:32;;;;;;;11.68;8.02;;;;;;;3.79;81.85;98817.50;5013638;28;20417;-79
2021/12/08 00:22:58;;;;;;;12.27;7.68;;;;;;;3.80;82.13;98816.44;5003401;28;20999;-79
2021/12/08 00:25:23;;;;;;;14.32;8.63;;;;;;;3.80;81.76;98811.88;5001072;28;20419;-79
2021/12/08 00:27:50;;;;;;;13.73;7.40;;;;;;;3.81;82.08;98810.03;5001872;28;21140;-79
2021/12/08 00:30:16;;;;;;;12.98;7.18;;;;;;;3.85;82.03;98811.19;5003671;28;20793;-79
2021/12/08 00:32:42;;;;;;;12.20;7.22;;;;;;;3.86;82.33;98810.09;5008830;28;20504;-79
2021/12/08 00:35:08;;;;;;;12.15;7.07;;;;;;;3.89;82.41;98804.25;5019649;28;20434;-79
2021/12/08 00:37:34;;;;;;;9.82;6.90;;;;;;;3.88;82.21;98806.16;5027821;28;20433;-79
2021/12/08 00:39:59;;;;;;;11.10;7.03;;;;;;;3.90;82.53;98805.88;5015266;28;20838;-79
2021/12/08 00:42:24;;;;;;;11.07;7.07;;;;;;;3.89;82.54;98801.56;5002135;28;20900;-79
2021/12/08 00:44:50;;;;;;;12.20;6.83;;;;;;;3.89;82.56;98807.75;5011394;28;20420;-79
2021/12/08 00:47:16;;;;;;;11.80;6.83;;;;;;;3.90;82.80;98805.88;5002869;28;20413;-79
2021/12/08 00:49:41;;;;;;;9.85;7.13;;;;;;;3.92;83.04;98814.53;5002188;28;20422;-79
2021/12/08 00:52:07;;;;;;;15.23;8.40;;;;;;;3.91;82.57;98820.94;5007233;28;20465;-79
2021/12/08 00:54:33;;;;;;;12.15;7.00;;;;;;;3.90;82.92;98828.16;5002124;28;20448;-79
2021/12/08 00:56:59;;;;;;;8.77;6.83;;;;;;;3.89;83.08;98831.88;5003785;28;20463;-79
2021/12/08 00:59:24;;;;;;;8.50;5.82;;;;;;;3.91;83.07;98827.09;5014598;28;20942;-78
2021/12/08 01:01:50;;;;;;;8.43;6.30;;;;;;;3.94;82.63;98831.97;5004128;28;20437;-78
2021/12/08 01:04:16;;;;;;;9.07;6.22;;;;;;;3.94;82.95;98839.19;5005849;28;20403;-79
2021/12/08 01:06:42;;;;;;;9.05;6.07;;;;;;;3.86;83.29;98848.44;5006248;28;20753;-79
2021/12/08 01:09:08;;;;;;;13.43;7.07;;;;;;;3.90;83.33;98852.25;5009596;28;20508;-79
2021/12/08 01:11:35;;;;;;;9.95;5.70;;;;;;;3.94;83.24;98847.25;5011346;28;20423;-79
2021/12/08 01:14:01;;;;;;;9.82;5.60;;;;;;;3.94;83.37;98857.97;5009188;28;20403;-78
2021/12/08 01:16:26;;;;;;;7.40;5.00;;;;;;;3.94;83.28;98866.00;5004508;28;21021;-79
2021/12/08 01:18:52;;;;;;;7.50;4.85;;;;;;;3.90;83.37;98872.88;5016755;28;20418;-79
2021/12/08 01:21:18;;;;;;;8.93;5.70;;;;;;;3.70;84.15;98883.22;5010941;28;20688;-79
2021/12/08 01:23:43;;;;;;;8.27;5.25;;;;;;;3.50;84.87;98889.81;5005804;28;20503;-79
2021/12/08 01:26:09;;;;;;;9.90;5.63;;;;;;;3.44;85.13;98889.94;5002625;28;20480;-78
2021/12/08 01:28:34;;;;;;;7.13;4.82;;;;;;;3.49;85.60;98887.38;5004950;28;20466;-79
2021/12/08 01:31:01;;;;;;;7.70;5.32;;;;;;;3.54;85.35;98877.56;5008759;28;20401;-79
2021/12/08 01:33:30;;;;;;;10.93;5.18;;;;;;;3.62;84.94;98881.75;5003746;28;20812;-79
2021/12/08 01:35:55;;;;;;;8.77;5.50;;;;;;;3.67;84.48;98868.44;5006028;28;20459;-79
2021/12/08 01:38:22;;;;;;;7.93;4.80;;;;;;;3.71;84.66;98863.41;5001583;28;20895;-79
2021/12/08 01:40:48;;;;;;;9.90;5.28;;;;;;;3.79;84.30;98842.41;5005549;28;20424;-79
2021/12/08 01:43:24;;;;;;;9.65;5.15;;;;;;;3.85;84.11;98840.66;5005183;28;20431;-79
2021/12/08 01:45:59;;;;;;;7.75;5.22;;;;;;;3.83;83.42;98845.41;5005888;28;20499;-79
2021/12/08 01:48:27;;;;;;;8.63;4.80;;;;;;;3.78;83.87;98850.69;5010180;28;20409;-79
2021/12/08 01:50:56;;;;;;;8.63;5.13;;;;;;;3.73;83.72;98831.84;5005521;28;20424;-79
2021/12/08 01:53:23;;;;;;;10.13;5.55;;;;;;;3.73;83.89;98829.97;5003413;28;20417;-79
2021/12/08 01:55:49;;;;;;;9.80;4.82;;;;;;;3.72;83.88;98814.97;5004838;28;20474;-80
2021/12/08 01:58:16;;;;;;;8.13;5.10;;;;;;;3.72;84.13;98819.50;5006936;28;20415;-79
2021/12/08 02:00:53;;;;;;;6.83;5.00;;;;;;;3.70;83.94;98798.31;5004108;28;20419;-79
2021/12/08 02:03:20;;;;;;;7.65;4.65;;;;;;;3.67;84.41;98786.22;5006061;28;20427;-79
2021/12/08 02:05:46;;;;;;;6.15;4.80;;;;;;;3.66;84.83;98784.59;5005136;28;20412;-79
2021/12/08 02:08:12;;;;;;;8.45;4.97;;;;;;;3.68;84.66;98797.75;5005043;28;20414;-79
2021/12/08 02:10:38;;;;;;;9.70;4.70;;;;;;;3.68;84.50;98803.09;5004477;28;21360;-79
2021/12/08 02:13:04;;;;;;;8.10;5.03;;;;;;;3.69;84.54;98794.00;5005061;28;20408;-79
2021/12/08 02:15:30;;;;;;;8.55;4.47;;;;;;;3.73;84.94;98787.09;5005811;28;20894;-80
2021/12/08 02:17:56;;;;;;;8.40;4.57;;;;;;;3.77;84.66;98787.44;5003939;28;20454;-79
2021/12/08 02:20:24;;;;;;;5.50;4.68;;;;;;;3.77;84.63;98771.38;5008164;28;20431;-79
2021/12/08 02:22:50;;;;;;;5.97;4.13;;;;;;;3.79;84.53;98777.31;5002672;28;20421;-79
2021/12/08 02:25:19;;;;;;;8.23;4.75;;;;;;;3.81;84.38;98764.47;5003652;28;22227;-79
2021/12/08 02:27:44;;;;;;;8.18;4.95;;;;;;;3.80;84.51;98765.53;5004260;28;20926;-80
2021/12/08 02:46:51;;;;;;;7.25;5.65;;;;;;;3.87;84.72;98761.63;5002506;28;20412;-80
2021/12/08 02:49:19;;;;;;;9.32;6.00;;;;;;;3.87;84.88;98761.63;5007252;28;20959;-79
2021/12/08 02:51:44;;;;;;;11.77;6.30;;;;;;;3.87;84.88;98768.88;5003908;28;20440;-79
2021/12/08 02:54:10;;;;;;;8.07;6.17;;;;;;;3.89;84.87;98766.75;5002996;28;20419;-80
2021/12/08 02:56:35;;;;;;;8.77;5.63;;;;;;;3.90;84.96;98763.00;5004921;28;20426;-79
2021/12/08 02:59:01;;;;;;;8.53;5.60;;;;;;;3.90;84.99;98766.50;5003829;28;20409;-80
2021/12/08 03:01:28;;;;;;;6.70;6.00;;;;;;;3.90;85.01;98776.41;5002560;28;20422;-79
2021/12/08 03:03:53;;;;;;;6.65;5.50;;;;;;;3.89;85.31;98764.06;5007320;28;20880;-79
2021/12/08 03:06:20;;;;;;;9.82;5.70;;;;;;;3.90;85.04;98768.38;5008685;28;20471;-79
2021/12/08 03:08:47;;;;;;;8.75;5.43;;;;;;;3.90;84.65;98768.38;5005399;28;20426;-79
2021/12/08 03:11:12;;;;;;;5.20;4.53;;;;;;;3.90;84.79;98771.88;5018403;28;21541;-79
2021/12/08 03:13:41;;;;;;;10.37;5.30;;;;;;;3.90;84.99;98766.50;5004130;28;20763;-80
2021/12/08 03:16:08;;;;;;;7.03;5.22;;;;;;;3.78;85.03;98765.78;5004590;28;20440;-79
2021/12/08 03:18:35;;;;;;;8.60;4.95;;;;;;;3.81;85.44;98762.63;5002250;28;20419;-79
2021/12/08 03:21:04;;;;;;;5.93;5.25;;;;;;;3.87;85.47;98769.69;5003431;28;20492;-79
2021/12/08 03:23:44;;;;;;;7.10;5.35;;;;;;;3.90;84.96;98774.56;5000828;28;20413;-79
2021/12/08 03:26:09;;;;;;;7.20;5.03;;;;;;;3.89;85.17;98770.25;5010381;28;20407;-79
2021/12/08 03:28:41;;;;;;;8.10;4.93;;;;;;;3.90;84.99;98774.56;4998780;28;20555;-80
2021/12/08 03:31:15;;;;;;;8.80;5.80;;;;;;;3.90;84.73;98768.38;5017094;28;20527;-80
2021/12/08 03:33:42;;;;;;;8.98;5.82;;;;;;;3.86;84.63;98770.72;5002888;28;20426;-80
2021/12/08 03:36:08;;;;;;;12.45;6.95;;;;;;;3.84;85.12;98780.06;5007395;28;20599;-80
2021/12/08 03:38:34;;;;;;;11.83;6.70;;;;;;;3.86;84.85;98785.97;5004323;28;20413;-79
2021/12/08 03:41:02;;;;;;;14.43;8.10;;;;;;;3.88;85.22;98799.97;5017440;28;20419;-80
2021/12/08 03:43:29;;;;;;;15.82;7.40;;;;;;;3.90;85.30;98803.22;5015091;28;20409;-79
2021/12/08 03:45:57;;;;;;;9.18;6.13;;;;;;;3.90;84.93;98805.88;5001658;28;20412;-80
2021/12/08 03:48:38;;;;;;;8.83;5.80;;;;;;;3.90;85.36;98797.84;5006821;28;20428;-79
2021/12/08 03:51:03;;;;;;;7.55;5.97;;;;;;;3.91;84.93;98802.97;5005336;28;20417;-80
2021/12/08 03:53:29;;;;;;;7.60;5.90;;;;;;;3.88;84.97;98803.47;5002332;28;20417;-80
2021/12/08 03:55:55;;;;;;;10.00;5.80;;;;;;;3.88;85.15;98800.78;5002165;28;20408;-80
2021/12/08 03:58:21;;;;;;;9.55;6.45;;;;;;;3.90;85.37;98811.25;5018160;28;20416;-79
2021/12/08 04:00:49;;;;;;;7.38;6.45;;;;;;;3.92;85.02;98809.16;5001799;28;20514;-79
2021/12/08 04:03:15;;;;;;;9.50;7.05;;;;;;;3.96;85.03;98810.28;5010137;28;21230;-80
2021/12/08 04:05:56;;;;;;;9.57;6.33;;;;;;;3.97;84.96;98806.56;5000841;28;20899;-79
2021/12/08 04:08:28;;;;;;;6.88;6.05;;;;;;;3.99;85.04;98807.94;5002694;28;21152;-79
2021/12/08 04:10:55;;;;;;;8.23;6.13;;;;;;;3.97;84.95;98825.31;5001875;28;20444;-80
2021/12/08 04:13:35;;;;;;;12.20;7.17;;;;;;;3.97;85.52;98834.16;5001534;28;20417;-79
2021/12/08 04:16:01;;;;;;;10.43;7.75;;;;;;;3.97;85.32;98822.63;5002426;28;20466;-79
2021/12/08 04:18:27;;;;;;;12.45;7.78;;;;;;;3.99;85.15;98825.88;5001595;28;20415;-79
2021/12/08 04:20:55;;;;;;;12.10;8.93;;;;;;;4.02;85.37;98817.34;5003606;28;20449;-79
2021/12/08 04:23:23;;;;;;;14.50;9.10;;;;;;;4.05;85.12;98816.88;4999578;28;20417;-79
2021/12/08 04:25:52;;;;;;;11.80;8.40;;;;;;;4.05;85.21;98820.34;5002657;28;20443;-79
2021/12/08 04:28:22;;;;;;;9.25;7.80;;;;;;;4.07;85.30;98825.50;5001165;28;20413;-79
2021/12/08 04:30:58;;;;;;;10.10;8.05;;;;;;;4.07;85.47;98825.50;5011196;28;20775;-79
2021/12/08 04:33:25;;;;;;;12.13;8.20;;;;;;;4.07;85.04;98825.50;5000293;28;20844;-78
2021/12/08 04:35:53;;;;;;;15.70;7.85;;;;;;;4.07;84.61;98825.50;5007021;28;20461;-79
2021/12/08 04:38:28;;;;;;;10.25;6.95;;;;;;;4.06;85.23;98822.00;5001450;28;20429;-79
2021/12/08 04:41:03;;;;;;;10.00;7.70;;;;;;;4.04;85.07;98813.41;5005103;28;20421;-79
2021/12/08 04:43:39;;;;;;;12.45;7.90;;;;;;;3.98;85.13;98806.31;5003040;28;20555;-80
2021/12/08 04:46:31;;;;;;;10.07;7.18;;;;;;;3.93;85.28;98800.03;5018123;28;20407;-79
2021/12/08 04:51:47;;;;;;;9.38;7.25;;;;;;;3.92;85.50;98809.16;5002205;28;20424;-79
2021/12/08 05:02:41;;;;;;;10.80;7.97;;;;;;;3.88;85.63;98787.38;5018215;28;20803;-80
2021/12/08 05:10:19;;;;;;;10.32;8.15;;;;;;;3.83;86.05;98765.03;5018175;28;20430;-80
2021/12/08 05:12:47;;;;;;;12.23;9.18;;;;;;;3.78;86.37;98757.75;5016513;28;20898;-80
2021/12/08 05:15:18;;;;;;;11.07;9.13;;;;;;;3.81;86.10;98767.97;5027336;28;20423;-80
2021/12/08 05:17:54;;;;;;;11.65;8.60;;;;;;;3.82;86.01;98769.56;5028959;28;20755;-79
2021/12/08 05:20:22;;;;;;;9.73;8.68;;;;;;;3.84;85.86;98780.06;5021181;28;20813;-81
2021/12/08 05:22:55;;;;;;;12.23;8.27;;;;;;;3.86;85.97;98780.63;5023192;28;20456;-81
2021/12/08 05:25:23;;;;;;;13.68;10.43;;;;;;;3.80;86.04;98768.19;5025953;28;20411;-80
2021/12/08 05:27:52;;;;;;;16.77;14.82;;;;;;;3.76;86.68;98761.69;5012735;28;20400;-80
2021/12/08 05:30:31;;;;;;;12.88;11.57;;;;;;;3.79;86.52;98758.56;5016395;28;20929;-80
2021/12/08 05:32:58;;;;;;;14.85;12.55;;;;;;;3.85;86.33;98781.69;5014622;28;20443;-80
2021/12/08 05:35:25;;;;;;;15.15;13.40;;;;;;;3.86;86.34;98778.75;5014550;28;20397;-80
2021/12/08 05:37:51;;;;;;;14.05;11.57;;;;;;;3.87;86.11;98760.81;5016414;28;20409;-80
2021/12/08 05:40:29;;;;;;;20.07;11.80;;;;;;;3.85;86.13;98768.31;5014279;28;20416;-80
2021/12/08 05:42:55;;;;;;;11.48;10.13;;;;;;;3.87;86.29;98771.53;5016921;28;20420;-79
2021/12/08 05:45:21;;;;;;;11.38;10.25;;;;;;;3.90;86.40;98779.09;5013377;28;20485;-81
2021/12/08 05:47:49;;;;;;;11.93;9.52;;;;;;;3.93;86.42;98771.38;5009266;28;20786;-80
2021/12/08 05:50:20;;;;;;;15.40;10.10;;;;;;;3.93;86.36;98778.59;5016057;28;20482;-79
2021/12/08 05:52:45;;;;;;;14.63;10.60;;;;;;;3.98;86.20;98782.22;5029154;28;20392;-79
2021/12/08 05:55:11;;;;;;;15.77;11.53;;;;;;;4.01;86.21;98775.53;5014438;28;20931;-79
2021/12/08 05:57:41;;;;;;;25.05;15.48;;;;;;;4.05;85.81;98782.84;5024385;28;20466;-79
2021/12/08 06:00:14;;;;;;;20.05;13.52;;;;;;;4.07;85.82;98790.66;5026311;28;20391;-79
2021/12/08 06:02:41;;;;;;;19.50;12.00;;;;;;;4.09;85.99;98796.56;5013509;28;20416;-78
2021/12/08 06:05:09;;;;;;;13.20;10.80;;;;;;;4.08;86.31;98805.69;5023920;28;20396;-79
2021/12/08 06:07:34;;;;;;;14.27;10.18;;;;;;;4.09;86.19;98807.28;5027460;28;20720;-78
2021/12/08 06:10:06;;;;;;;13.80;10.50;;;;;;;4.12;85.83;98809.47;5023713;28;20428;-79
2021/12/08 06:12:32;;;;;;;12.85;10.57;;;;;;;4.11;85.88;98799.84;5020001;28;20388;-79
2021/12/08 06:14:57;;;;;;;13.45;10.27;;;;;;;4.13;85.85;98795.84;5024088;28;20400;-80
2021/12/08 06:17:27;;;;;;;12.32;10.82;;;;;;;4.12;85.46;98794.22;5019181;28;20388;-78
2021/12/08 06:19:53;;;;;;;15.85;11.20;;;;;;;4.13;85.79;98781.63;5013674;28;20480;-79
2021/12/08 06:22:21;;;;;;;11.93;10.52;;;;;;;4.13;85.54;98784.31;5015600;28;20497;-80
2021/12/08 06:24:46;;;;;;;14.30;10.70;;;;;;;4.11;85.87;98776.53;5022329;28;20512;-79
2021/12/08 06:27:12;;;;;;;12.43;10.40;;;;;;;4.11;85.88;98775.69;5013804;28;20814;-79
2021/12/08 06:29:38;;;;;;;14.13;11.30;;;;;;;4.13;85.90;98789.66;5029707;28;20736;-78
2021/12/08 06:32:06;;;;;;;12.13;10.80;;;;;;;4.14;85.89;98791.31;5033891;28;20399;-79
2021/12/08 06:34:32;;;;;;;18.08;11.10;;;;;;;4.14;85.88;98780.56;5023607;28;20439;-80
2021/12/08 06:37:06;;;;;;;14.05;11.00;;;;;;;4.14;85.83;98785.94;5023342;28;20411;-78
2021/12/08 06:39:41;;;;;;;13.05;11.73;;;;;;;4.13;86.18;98782.44;5014590;28;20887;-79
2021/12/08 06:42:13;;;;;;;18.25;13.05;;;;;;;4.12;85.91;98791.53;5019840;28;20937;-79
2021/12/08 06:44:43;;;;;;;23.92;16.63;;;;;;;4.10;86.20;98800.88;5033705;28;20476;-79
2021/12/08 06:47:20;;;;;;;19.65;14.60;;;;;;;4.09;86.12;98820.69;5032247;28;20433;-80
2021/12/08 06:49:47;;;;;;;19.63;16.02;;;;;;;4.06;86.50;98827.34;5017218;28;20415;-80
2021/12/08 06:52:18;;;;;;;17.50;15.07;;;;;;;4.04;86.55;98842.06;5024499;28;20411;-79
2021/12/08 06:54:50;;;;;;;16.45;13.50;;;;;;;4.05;86.61;98836.44;5022502;28;20397;-79
2021/12/08 06:57:39;;;;;;;15.52;12.57;;;;;;;4.07;86.45;98820.94;5031351;28;20382;-80
2021/12/08 07:00:20;;;;;;;15.50;11.85;;;;;;;4.09;86.29;98826.88;5013825;28;20405;-79
2021/12/08 07:05:42;;;;;;;17.03;13.27;;;;;;;4.13;86.00;98825.34;5021527;28;20531;-78
2021/12/08 07:08:13;;;;;;;17.10;12.68;;;;;;;4.12;86.01;98812.97;5019962;28;20904;-79
2021/12/08 07:10:44;;;;;;;14.60;12.20;;;;;;;4.11;85.77;98823.97;5011246;28;20428;-79
2021/12/08 07:13:17;;;;;;;15.15;11.95;;;;;;;4.08;86.02;98838.63;5019411;28;20417;-80
2021/12/08 07:15:49;;;;;;;18.80;13.60;;;;;;;4.05;86.00;98835.66;5021668;28;20539;-79
2021/12/08 07:18:25;;;;;;;19.33;15.00;;;;;;;3.97;86.18;98814.59;5025494;28;20394;-79
2021/12/08 07:20:58;;;;;;;22.27;17.45;;;;;;;3.86;86.86;98797.53;5016252;28;20409;-78
2021/12/08 07:23:43;;;;;;;23.73;15.47;;;;;;;3.81;87.43;98797.44;5025923;28;20534;-79
2021/12/08 07:26:31;;;;;;;20.35;15.85;;;;;;;3.87;87.27;98799.16;5023637;28;20403;-79
2021/12/08 07:28:59;;;;;;;27.53;16.17;;;;;;;3.90;87.03;98805.88;5018502;28;20412;-79
2021/12/08 07:31:29;;;;;;;19.70;14.60;;;;;;;3.90;86.85;98814.75;5012798;28;20392;-80
2021/12/08 07:33:56;;;;;;;21.98;14.50;;;;;;;3.94;87.32;98805.19;5013111;28;20393;-80
2021/12/08 07:36:23;;;;;;;17.60;12.93;;;;;;;3.95;87.20;98789.91;5015331;28;20413;-79
2021/12/08 07:38:53;;;;;;;23.83;15.20;;;;;;;3.91;87.46;98780.72;5011604;28;20768;-79
2021/12/08 07:41:28;;;;;;;22.00;13.90;;;;;;;3.95;87.34;98788.03;5020930;28;20500;-79
2021/12/08 07:43:54;;;;;;;18.85;13.25;;;;;;;4.01;87.11;98799.66;5019117;28;20416;-79
2021/12/08 07:46:29;;;;;;;24.50;16.52;;;;;;;4.05;87.14;98806.97;5011580;28;20763;-79
2021/12/08 07:49:06;;;;;;;30.00;19.13;;;;;;;4.07;86.75;98807.53;5011483;28;20471;-79
2021/12/08 07:51:41;;;;;;;20.60;14.20;;;;;;;4.11;86.91;98799.84;5022323;28;20399;-79
2021/12/08 07:54:07;;;;;;;20.75;13.25;;;;;;;4.11;86.96;98800.66;5015448;28;20775;-79
2021/12/08 07:56:34;;;;;;;13.60;10.67;;;;;;;4.09;86.75;98804.59;5022793;28;20444;-79
2021/12/08 07:59:04;;;;;;;15.50;11.05;;;;;;;4.01;86.97;98797.78;5023441;28;20400;-79
2021/12/08 08:01:33;;;;;;;14.75;10.57;;;;;;;4.00;87.05;98798.84;5019285;28;20395;-79
2021/12/08 08:04:01;;;;;;;15.63;11.63;;;;;;;4.03;87.12;98810.94;5013255;28;20471;-79
2021/12/08 08:06:33;;;;;;;15.93;11.07;;;;;;;4.07;86.90;98814.78;5018233;28;20922;-79
2021/12/08 08:09:00;;;;;;;14.55;11.55;;;;;;;4.10;86.85;98836.53;5021983;28;20405;-79
2021/12/08 08:11:33;;;;;;;15.15;11.88;;;;;;;4.12;86.39;98826.38;5024640;28;20913;-79
2021/12/08 08:13:59;;;;;;;16.10;13.32;;;;;;;4.13;86.57;98821.84;5013752;28;20404;-79
2021/12/08 08:16:33;;;;;;;15.15;11.65;;;;;;;4.17;86.73;98817.63;5017778;28;20732;-79
2021/12/08 08:19:08;;;;;;;13.65;11.35;;;;;;;4.21;86.44;98823.31;5029701;28;20403;-79
2021/12/08 08:21:38;;;;;;;15.52;12.70;;;;;;;4.24;86.49;98820.13;5016155;28;20439;-79
2021/12/08 08:24:05;;;;;;;16.02;12.98;;;;;;;4.26;86.19;98816.16;5015159;28;20468;-79
2021/12/08 08:26:31;;;;;;;15.65;12.50;;;;;;;4.27;86.45;98820.47;5012209;28;20381;-79
2021/12/08 08:28:57;;;;;;;13.43;11.52;;;;;;;4.27;86.18;98822.34;5018054;28;20888;-79
2021/12/08 08:31:31;;;;;;;16.13;12.02;;;;;;;4.29;86.47;98825.56;5027568;28;20501;-79
2021/12/08 08:33:56;;;;;;;14.47;11.63;;;;;;;4.31;85.98;98826.97;5016280;28;20455;-79
2021/12/08 08:36:26;;;;;;;19.23;13.70;;;;;;;4.35;86.53;98830.78;5023263;28;20436;-80
2021/12/08 08:39:08;;;;;;;14.88;12.25;;;;;;;4.39;86.16;98823.06;5022137;28;20414;-80
2021/12/08 08:42:01;;;;;;;16.80;12.45;;;;;;;4.40;85.98;98825.50;5012936;28;20765;-79
2021/12/08 08:44:33;;;;;;;20.20;13.52;;;;;;;4.39;86.20;98826.56;5021580;28;20391;-79
2021/12/08 08:47:05;;;;;;;19.37;12.27;;;;;;;4.32;86.72;98807.13;5016371;28;20466;-79
2021/12/08 08:49:32;;;;;;;12.15;10.90;;;;;;;4.37;86.73;98803.72;5029232;28;20420;-79
2021/12/08 08:52:05;;;;;;;16.15;11.82;;;;;;;4.45;86.60;98805.97;5016774;28;20401;-80
2021/12/08 08:54:34;;;;;;;16.15;11.77;;;;;;;4.51;86.31;98813.84;5011791;28;20424;-80
2021/12/08 08:57:08;;;;;;;16.48;11.85;;;;;;;4.57;86.07;98826.31;5010389;28;20768;-79
2021/12/08 08:59:40;;;;;;;19.60;13.65;;;;;;;4.64;85.87;98836.88;5023393;28;20431;-80
2021/12/08 09:02:09;;;;;;;15.95;12.63;;;;;;;4.67;86.19;98844.44;5020985;28;20804;-79
2021/12/08 09:04:44;;;;;;;20.42;15.73;;;;;;;4.70;86.30;98852.81;5016735;28;20415;-79
2021/12/08 09:07:21;;;;;;;24.00;16.23;;;;;;;4.72;85.68;98857.91;5015268;28;20427;-80
2021/12/08 09:09:47;;;;;;;26.83;16.75;;;;;;;4.65;86.20;98865.31;5018803;28;20423;-79
2021/12/08 09:12:23;;;;;;;18.10;15.57;;;;;;;4.50;87.15;98881.19;5026377;28;20410;-80
2021/12/08 09:14:58;;;;;;;21.63;16.02;;;;;;;4.48;87.16;98888.66;5028061;28;20426;-79
2021/12/08 09:17:29;;;;;;;19.88;14.00;;;;;;;4.45;87.27;98895.31;5011604;28;20734;-80
2021/12/08 09:20:09;;;;;;;16.25;13.25;;;;;;;4.40;87.76;98889.06;5014359;28;20810;-79
2021/12/08 09:22:53;;;;;;;16.77;13.00;;;;;;;4.49;87.46;98892.94;5011623;28;20495;-79
2021/12/08 09:25:28;;;;;;;16.75;14.05;;;;;;;4.51;87.18;98901.59;5013785;28;20396;-79
2021/12/08 09:27:57;;;;;;;18.70;14.20;;;;;;;4.50;87.35;98887.34;5030960;28;20492;-79
2021/12/08 09:30:35;;;;;;;19.17;14.65;;;;;;;4.58;87.14;98881.56;5029912;28;20563;-79
2021/12/08 09:33:08;;;;;;;16.70;14.35;;;;;;;4.63;87.02;98883.53;5030589;28;20401;-79
2021/12/08 09:35:43;;;;;;;21.38;17.42;;;;;;;4.64;86.27;98883.28;5017558;28;20411;-79
2021/12/08 09:38:13;;;;;;;24.15;18.13;;;;;;;4.67;86.46;98882.81;5020485;28;20446;-79
2021/12/08 09:40:53;;;;;;;22.10;16.98;;;;;;;4.74;86.54;98876.47;5015303;28;20536;-79
2021/12/08 09:43:23;;;;;;;22.70;17.17;;;;;;;4.81;86.53;98885.94;5023755;28;20489;-79
2021/12/08 09:46:19;;;;;;;23.58;18.13;;;;;;;4.85;86.18;98881.72;5013642;28;20487;-79
2021/12/08 09:48:49;;;;;;;19.02;16.25;;;;;;;4.89;86.01;98874.81;5024961;28;20417;-79
2021/12/08 09:51:20;;;;;;;20.02;17.15;;;;;;;4.92;86.05;98868.94;5024657;28;20836;-79
2021/12/08 09:53:46;;;;;;;23.73;17.67;;;;;;;4.97;85.72;98869.00;5014522;28;20749;-80
2021/12/08 09:56:11;;;;;;;33.67;21.60;;;;;;;5.01;86.17;98863.94;5016046;28;20402;-80
2021/12/08 09:58:38;;;;;;;19.13;14.53;;;;;;;5.00;85.82;98868.53;5014154;28;20783;-80
2021/12/08 10:01:06;;;;;;;22.08;13.35;;;;;;;5.02;86.18;98868.28;5027561;28;20949;-79
2021/12/08 10:03:33;;;;;;;18.92;13.82;;;;;;;4.99;86.25;98858.84;5021660;28;20415;-79
2021/12/08 10:06:00;;;;;;;16.90;12.65;;;;;;;5.00;86.33;98862.34;5012920;28;20412;-79
2021/12/08 10:08:25;;;;;;;14.18;12.23;;;;;;;5.04;86.26;98861.59;5014831;28;20416;-79
2021/12/08 10:10:51;;;;;;;18.47;14.00;;;;;;;5.06;86.51;98859.47;5013587;28;20428;-80
2021/12/08 10:13:17;;;;;;;15.27;11.90;;;;;;;5.10;86.33;98859.81;5012557;28;20444;-80
2021/12/08 10:15:43;;;;;;;17.25;13.00;;;;;;;5.12;86.39;98858.47;5018576;28;20411;-79
2021/12/08 10:18:09;;;;;;;18.17;13.87;;;;;;;5.14;86.29;98855.53;5011461;28;20404;-79
2021/12/08 10:20:55;;;;;;;16.63;13.53;;;;;;;5.15;85.98;98862.53;5019075;28;20482;-80
2021/12/08 10:23:34;;;;;;;18.45;12.90;;;;;;;5.17;85.92;98849.69;5014187;28;20403;-80
2021/12/08 10:26:20;;;;;;;15.10;11.98;;;;;;;5.17;85.88;98838.97;5013591;28;20422;-79
2021/12/08 10:28:48;;;;;;;13.90;11.43;;;;;;;5.17;85.69;98831.69;5021676;28;20410;-80
2021/12/08 10:31:28;;;;;;;13.60;11.43;;;;;;;5.14;86.30;98834.88;5015000;28;20503;-80
2021/12/08 10:34:09;;;;;;;13.98;10.07;;;;;;;5.16;86.14;98830.09;5029646;28;20407;-80
2021/12/08 10:36:46;;;;;;;12.38;9.70;;;;;;;5.19;85.76;98834.94;5017122;28;20952;-80
2021/12/08 10:39:19;;;;;;;12.40;9.30;;;;;;;5.12;85.93;98820.91;5021904;28;20408;-80
2021/12/08 10:42:02;;;;;;;12.63;9.68;;;;;;;5.07;86.65;98823.50;5028771;28;20424;-80
2021/12/08 10:44:31;;;;;;;14.23;10.03;;;;;;;5.04;86.97;98825.88;5021601;28;20409;-80
2021/12/08 10:46:58;;;;;;;16.05;11.40;;;;;;;5.05;86.86;98827.50;5013933;28;20452;-79
2021/12/08 10:54:45;;;;;;;11.07;9.07;;;;;;;5.32;86.64;98823.03;5013665;28;20376;-80
2021/12/08 10:57:23;;;;;;;12.13;8.90;;;;;;;5.45;85.54;98821.81;5027926;28;20526;-79
2021/12/08 10:59:57;;;;;;;10.32;8.02;;;;;;;5.51;85.26;98828.88;5022987;28;20413;-79
2021/12/08 11:02:49;;;;;;;12.48;8.93;;;;;;;5.48;85.17;98830.19;5013281;28;20462;-79
2021/12/08 11:05:23;;;;;;;12.23;10.38;;;;;;;5.48;85.80;98832.88;5021223;28;20412;-79
2021/12/08 11:08:15;;;;;;;15.05;10.80;;;;;;;5.51;85.17;98827.00;5024159;28;20547;-79
2021/12/08 11:11:03;;;;;;;12.93;10.00;;;;;;;5.53;85.80;98827.53;5016795;28;20478;-79
2021/12/08 11:13:38;;;;;;;13.15;9.93;;;;;;;5.57;85.10;98831.34;5028534;28;20790;-79
2021/12/08 11:16:08;;;;;;;12.80;9.50;;;;;;;5.66;85.36;98834.44;5023150;28;20472;-79
2021/12/08 11:18:39;;;;;;;11.87;10.67;;;;;;;5.72;85.84;98834.22;5016756;28;20915;-80
2021/12/08 11:21:14;;;;;;;15.45;10.90;;;;;;;5.74;85.27;98833.97;5025327;28;20447;-80
2021/12/08 11:26:21;;;;;;;16.50;11.40;;;;;;;5.82;85.51;98821.94;5019506;28;20411;-79
2021/12/08 11:28:53;;;;;;;25.60;16.50;;;;;;;5.83;85.25;98834.34;5019373;28;20421;-79
2021/12/08 11:31:19;;;;;;;23.90;16.58;;;;;;;5.82;85.45;98833.53;5012720;28;20441;-79
2021/12/08 11:33:59;;;;;;;26.00;18.67;;;;;;;5.81;85.29;98834.56;5014213;28;20439;-80
2021/12/08 11:36:25;;;;;;;33.53;18.83;;;;;;;5.82;85.43;98836.22;5026981;28;20474;-79
2021/12/08 11:38:51;;;;;;;25.42;18.77;;;;;;;5.87;85.69;98822.84;5012821;28;20404;-80
2021/12/08 11:41:27;;;;;;;23.10;17.80;;;;;;;5.87;85.53;98825.53;5012477;28;20420;-79
2021/12/08 11:43:55;;;;;;;24.85;17.17;;;;;;;5.92;85.78;98839.03;5022240;28;20439;-80
2021/12/08 11:46:21;;;;;;;20.58;17.50;;;;;;;5.97;85.67;98838.25;5025249;28;20875;-79
2021/12/08 11:48:56;;;;;;;21.40;17.60;;;;;;;6.01;85.76;98832.13;5012126;28;20405;-80
2021/12/08 11:51:22;;;;;;;23.40;17.20;;;;;;;6.01;85.48;98824.06;5028575;28;20401;-79
2021/12/08 11:53:47;;;;;;;20.80;16.13;;;;;;;6.02;85.42;98824.88;5013391;28;20451;-80
2021/12/08 11:56:35;;;;;;;21.30;17.03;;;;;;;6.06;85.48;98821.41;5026689;28;20418;-79
2021/12/08 11:59:04;;;;;;;24.70;16.88;;;;;;;6.07;85.47;98820.34;5022013;28;20408;-79
2021/12/08 12:01:29;;;;;;;20.33;15.63;;;;;;;6.07;85.42;98823.03;5017813;28;20492;-79
2021/12/08 12:03:55;;;;;;;22.25;17.85;;;;;;;6.09;85.42;98817.41;5017514;28;20403;-79
2021/12/08 12:06:27;;;;;;;23.85;18.67;;;;;;;6.11;85.52;98820.66;5012252;28;20891;-80
2021/12/08 12:08:54;;;;;;;23.08;17.55;;;;;;;6.14;85.51;98825.50;5020746;28;20438;-79
2021/12/08 12:11:23;;;;;;;23.27;17.20;;;;;;;6.15;85.45;98813.69;5023889;28;20431;-78
2021/12/08 12:13:49;;;;;;;30.08;20.38;;;;;;;6.15;85.46;98814.50;5013688;28;20756;-80
2021/12/08 12:16:14;;;;;;;32.15;20.23;;;;;;;6.14;85.96;98804.00;5025833;28;20397;-80
2021/12/08 12:18:39;;;;;;;24.53;19.03;;;;;;;6.14;86.33;98809.38;5012148;28;20922;-80
2021/12/08 12:21:20;;;;;;;26.30;20.37;;;;;;;6.14;86.54;98807.50;5021689;28;20407;-80
2021/12/08 12:23:45;;;;;;;32.25;18.27;;;;;;;6.13;85.90;98805.06;5013183;28;20462;-80
2021/12/08 12:26:53;;;;;;;22.47;18.40;;;;;;;6.16;86.50;98812.59;5015935;28;20416;-79
2021/12/08 12:29:35;;;;;;;24.55;17.58;;;;;;;6.18;86.13;98818.56;5019324;28;20415;-79
2021/12/08 12:32:21;;;;;;;24.60;17.23;;;;;;;6.20;86.31;98816.41;5017314;28;20467;-80